Time;durP1;ratioP1;P1;durP2;ratioP2;P2;SDS_P1;SDS_P2;PMS_P1;PMS_P2;Temp;Humidity;BMP_temperature;BMP_pressure;BME280_temperature;BME280_humidity;BME280_pressure;Samples;Min_cycle;Max_cycle;Signal;HPM_P1;HPM_P2
2024/01/07 00:02:11;;;;;;;39.67;21.70;;;3.20;99.90;;;;;;5105585;28;20016;-72
2024/01/07 00:04:37;;;;;;;36.42;20.27;;;3.20;99.90;;;;;;5105036;28;20027;-72
2024/01/07 00:07:04;;;;;;;41.17;22.38;;;3.20;99.90;;;;;;5087840;28;20088;-72
2024/01/07 00:09:30;;;;;;;37.70;20.77;;;3.20;99.90;;;;;;5087529;28;20122;-72
2024/01/07 00:11:55;;;;;;;39.90;22.13;;;3.20;99.90;;;;;;5106238;28;20142;-72
2024/01/07 00:14:21;;;;;;;43.17;22.50;;;3.20;99.90;;;;;;5105680;28;20499;-77
2024/01/07 00:16:47;;;;;;;41.00;21.83;;;3.20;99.90;;;;;;5106202;28;20274;-72
2024/01/07 00:19:13;;;;;;;35.60;20.33;;;3.20;99.90;;;;;;5105600;28;20019;-72
2024/01/07 00:21:38;;;;;;;37.88;20.88;;;3.20;99.90;;;;;;5106450;28;20023;-72
2024/01/07 00:24:04;;;;;;;37.03;21.00;;;3.20;99.90;;;;;;5086907;28;20016;-73
2024/01/07 00:26:30;;;;;;;40.88;21.33;;;3.20;99.90;;;;;;5087439;28;20073;-73
2024/01/07 00:28:56;;;;;;;41.53;20.90;;;3.20;99.90;;;;;;5105107;28;20050;-72
2024/01/07 00:31:21;;;;;;;42.28;22.58;;;3.20;99.90;;;;;;5106180;28;20030;-72
2024/01/07 00:33:47;;;;;;;42.13;21.25;;;3.20;99.90;;;;;;5105412;28;20521;-72
2024/01/07 00:36:13;;;;;;;41.30;21.23;;;3.20;99.90;;;;;;5087896;28;20041;-72
2024/01/07 00:38:38;;;;;;;42.63;22.52;;;3.10;99.90;;;;;;5105213;28;20139;-72
2024/01/07 00:41:04;;;;;;;42.53;21.73;;;3.20;99.90;;;;;;5105612;28;20024;-72
2024/01/07 00:43:30;;;;;;;44.50;22.38;;;3.20;99.90;;;;;;5104597;28;20118;-72
2024/01/07 00:45:56;;;;;;;45.88;22.90;;;3.20;99.90;;;;;;5105691;28;20536;-72
2024/01/07 00:48:21;;;;;;;51.28;22.65;;;3.20;99.90;;;;;;5105529;28;20055;-72
2024/01/07 00:50:47;;;;;;;47.15;23.23;;;3.10;99.90;;;;;;5105616;28;20040;-71
2024/01/07 00:53:13;;;;;;;50.58;23.35;;;3.20;99.90;;;;;;5105511;28;20549;-71
2024/01/07 00:55:38;;;;;;;45.58;22.70;;;3.10;99.90;;;;;;5087347;28;20396;-72
2024/01/07 00:58:04;;;;;;;56.17;25.75;;;3.10;99.90;;;;;;5105728;28;20507;-71
2024/01/07 01:00:30;;;;;;;60.10;23.73;;;3.10;99.90;;;;;;5105387;28;20288;-72
2024/01/07 01:02:55;;;;;;;56.00;24.50;;;3.10;99.90;;;;;;5105716;28;20024;-72
2024/01/07 01:05:21;;;;;;;60.75;28.10;;;3.10;99.90;;;;;;5086723;28;20031;-72
2024/01/07 01:07:47;;;;;;;61.80;27.50;;;3.10;99.90;;;;;;5106277;28;20178;-72
2024/01/07 01:10:16;;;;;;;59.85;26.73;;;3.10;99.90;;;;;;5105265;28;20400;-73
2024/01/07 01:12:42;;;;;;;53.55;24.30;;;3.10;99.90;;;;;;5105555;28;20030;-73
2024/01/07 01:15:09;;;;;;;50.08;25.38;;;3.10;99.90;;;;;;5106579;28;20159;-73
2024/01/07 01:17:34;;;;;;;55.28;25.45;;;3.10;99.90;;;;;;5109729;28;20239;-73
2024/01/07 01:20:04;;;;;;;47.55;24.40;;;3.10;99.90;;;;;;5108633;28;20275;-73
2024/01/07 01:22:30;;;;;;;48.38;23.40;;;3.10;99.90;;;;;;5109449;28;20130;-73
2024/01/07 01:24:56;;;;;;;45.00;23.13;;;3.10;99.90;;;;;;5108839;28;20015;-73
2024/01/07 01:27:21;;;;;;;44.53;22.40;;;3.10;99.90;;;;;;5109198;28;20106;-72
2024/01/07 01:29:47;;;;;;;47.65;23.88;;;3.10;99.90;;;;;;5108744;28;20023;-72
2024/01/07 01:32:13;;;;;;;44.08;22.98;;;3.10;99.90;;;;;;5109306;28;20020;-72
2024/01/07 01:34:40;;;;;;;38.65;20.98;;;3.10;99.90;;;;;;5108976;28;20024;-73
2024/01/07 01:37:07;;;;;;;41.03;22.08;;;3.10;99.90;;;;;;5090804;28;20055;-72
2024/01/07 01:39:33;;;;;;;42.40;21.08;;;3.00;99.90;;;;;;5094302;28;20261;-73
2024/01/07 01:41:59;;;;;;;44.15;22.80;;;3.00;99.90;;;;;;5108817;28;20660;-73
2024/01/07 01:44:27;;;;;;;42.33;22.50;;;3.00;99.90;;;;;;5108625;28;20428;-73
2024/01/07 01:46:52;;;;;;;44.15;22.73;;;3.00;99.90;;;;;;5090678;28;20578;-72
2024/01/07 01:49:18;;;;;;;40.08;21.73;;;3.00;99.90;;;;;;5108510;28;20032;-72
2024/01/07 01:51:44;;;;;;;37.72;21.42;;;3.00;99.90;;;;;;5108973;28;20034;-73
2024/01/07 01:54:11;;;;;;;37.20;21.60;;;3.00;99.90;;;;;;5090003;28;20024;-72
2024/01/07 01:56:36;;;;;;;40.03;21.17;;;3.00;99.90;;;;;;5108862;28;20064;-72
2024/01/07 01:59:02;;;;;;;40.40;22.38;;;3.00;99.90;;;;;;5108232;28;20415;-73
2024/01/07 02:01:29;;;;;;;38.80;21.30;;;3.00;99.90;;;;;;5090305;28;20461;-73
2024/01/07 02:03:55;;;;;;;38.00;21.15;;;3.00;99.90;;;;;;5108122;28;20059;-71
2024/01/07 02:06:23;;;;;;;45.45;22.67;;;3.00;99.90;;;;;;5090335;28;20488;-73
2024/01/07 02:08:49;;;;;;;42.55;21.92;;;3.00;99.90;;;;;;5107730;28;20475;-74
2024/01/07 02:11:15;;;;;;;39.83;21.55;;;3.00;99.90;;;;;;5089940;28;20123;-73
2024/01/07 02:13:41;;;;;;;43.05;22.48;;;3.00;99.90;;;;;;5107684;28;20035;-72
2024/01/07 02:16:07;;;;;;;45.03;22.42;;;3.00;99.90;;;;;;5108349;28;20020;-72
2024/01/07 02:18:33;;;;;;;42.63;20.95;;;3.00;99.90;;;;;;5107816;28;20032;-72
2024/01/07 02:20:58;;;;;;;45.30;21.67;;;2.90;99.90;;;;;;5108134;28;20019;-73
2024/01/07 02:23:24;;;;;;;41.67;21.92;;;3.00;99.90;;;;;;5108665;28;20027;-72
2024/01/07 02:25:49;;;;;;;50.47;23.50;;;3.00;99.90;;;;;;5107435;28;20074;-73
2024/01/07 02:28:15;;;;;;;47.63;23.17;;;3.00;99.90;;;;;;5089563;28;20028;-72
2024/01/07 02:30:41;;;;;;;47.38;21.92;;;2.90;99.90;;;;;;5089036;28;20030;-72
2024/01/07 02:33:06;;;;;;;50.25;23.35;;;3.00;99.90;;;;;;5108312;28;20597;-73
2024/01/07 02:35:32;;;;;;;50.58;22.02;;;3.00;99.90;;;;;;5107699;28;20089;-73
2024/01/07 02:37:57;;;;;;;48.40;22.85;;;3.00;99.90;;;;;;5107900;28;20075;-73
2024/01/07 02:40:23;;;;;;;48.15;22.98;;;3.00;99.90;;;;;;5089130;28;20487;-72
2024/01/07 02:42:49;;;;;;;48.88;22.83;;;3.00;99.90;;;;;;5108399;28;20035;-72
2024/01/07 02:45:14;;;;;;;47.65;23.30;;;2.90;99.90;;;;;;5089191;28;20028;-72
2024/01/07 02:47:40;;;;;;;50.00;22.70;;;2.90;99.90;;;;;;5107913;28;20023;-72
2024/01/07 02:50:06;;;;;;;47.75;21.85;;;2.90;99.90;;;;;;5107221;28;20046;-73
2024/01/07 02:52:32;;;;;;;50.22;22.55;;;2.90;99.90;;;;;;5089466;28;20428;-73
2024/01/07 02:54:58;;;;;;;46.35;22.48;;;2.90;99.90;;;;;;5107234;28;20404;-72
2024/01/07 02:57:24;;;;;;;48.55;22.75;;;2.90;99.90;;;;;;5107504;28;20035;-72
2024/01/07 02:59:50;;;;;;;47.25;22.85;;;2.90;99.90;;;;;;5106670;28;20024;-73
2024/01/07 03:02:16;;;;;;;41.42;21.20;;;2.90;99.90;;;;;;5107994;28;20467;-73
2024/01/07 03:04:43;;;;;;;37.13;20.63;;;2.90;99.90;;;;;;5088250;28;20051;-72
2024/01/07 03:07:09;;;;;;;40.55;20.23;;;2.90;99.90;;;;;;5088993;28;20027;-72
2024/01/07 03:09:34;;;;;;;46.85;20.70;;;2.90;99.90;;;;;;5106764;28;20028;-73
2024/01/07 03:12:00;;;;;;;39.08;20.02;;;2.90;99.90;;;;;;5107148;28;20041;-73
2024/01/07 03:14:26;;;;;;;37.75;20.27;;;2.90;99.90;;;;;;5106807;28;20028;-73
2024/01/07 03:16:52;;;;;;;37.88;20.83;;;2.90;99.90;;;;;;5107211;28;20122;-72
2024/01/07 03:19:18;;;;;;;37.75;18.40;;;2.90;99.90;;;;;;5106933;28;20539;-73
2024/01/07 03:21:44;;;;;;;35.65;18.13;;;2.90;99.90;;;;;;5107324;28;20458;-73
2024/01/07 03:24:10;;;;;;;33.17;17.65;;;2.80;99.90;;;;;;5106386;28;20024;-72
2024/01/07 03:26:36;;;;;;;36.05;18.80;;;2.90;99.90;;;;;;5107260;28;20508;-72
2024/01/07 03:29:02;;;;;;;34.90;19.38;;;2.80;99.90;;;;;;5106033;28;20032;-72
2024/01/07 03:31:28;;;;;;;29.50;16.67;;;2.80;99.90;;;;;;5107455;28;20024;-73
2024/01/07 03:33:54;;;;;;;31.60;18.65;;;2.80;99.90;;;;;;5106135;28;20530;-73
2024/01/07 03:36:20;;;;;;;32.00;17.00;;;2.80;99.90;;;;;;5107082;28;20020;-73
2024/01/07 03:38:45;;;;;;;28.45;16.67;;;2.80;99.90;;;;;;5086761;28;20071;-72
2024/01/07 03:41:20;;;;;;;28.08;15.60;;;2.80;99.90;;;;;;5106631;28;20099;-72
2024/01/07 03:43:49;;;;;;;25.35;16.13;;;2.80;99.90;;;;;;5088325;28;20512;-72
2024/01/07 03:46:16;;;;;;;23.73;15.32;;;2.80;99.90;;;;;;5088629;28;20066;-73
2024/01/07 03:48:42;;;;;;;27.45;15.82;;;2.80;99.90;;;;;;5106669;28;20032;-72
2024/01/07 03:51:08;;;;;;;26.08;15.02;;;2.80;99.90;;;;;;5106213;28;20023;-73
2024/01/07 03:53:34;;;;;;;23.33;13.18;;;2.80;99.90;;;;;;5088523;28;20068;-73
2024/01/07 03:55:59;;;;;;;27.42;15.77;;;2.80;99.90;;;;;;5105937;28;20028;-73
2024/01/07 03:58:25;;;;;;;24.60;14.95;;;2.80;99.90;;;;;;5106610;28;20122;-72
2024/01/07 04:00:50;;;;;;;24.98;14.75;;;2.80;99.90;;;;;;5105913;28;20028;-72
2024/01/07 04:03:16;;;;;;;26.00;15.07;;;2.80;99.90;;;;;;5106570;28;20014;-73
2024/01/07 04:05:42;;;;;;;24.05;14.98;;;2.70;99.90;;;;;;5105501;28;20023;-72
2024/01/07 04:08:12;;;;;;;27.25;15.95;;;2.70;99.90;;;;;;5106245;28;20026;-72
2024/01/07 04:10:38;;;;;;;24.00;15.07;;;2.70;99.90;;;;;;5106035;28;20076;-73
2024/01/07 04:13:04;;;;;;;24.67;15.10;;;2.70;99.90;;;;;;5106018;28;20519;-73
2024/01/07 04:15:30;;;;;;;23.85;15.98;;;2.70;99.90;;;;;;5105914;28;20160;-72
2024/01/07 04:17:55;;;;;;;25.30;15.15;;;2.70;99.90;;;;;;5106095;28;20555;-73
2024/01/07 04:20:21;;;;;;;26.40;16.33;;;2.70;99.90;;;;;;5105397;28;20131;-73
2024/01/07 04:22:47;;;;;;;28.55;16.85;;;2.70;99.90;;;;;;5106233;28;20102;-73
2024/01/07 04:25:13;;;;;;;28.55;16.92;;;2.70;99.90;;;;;;5105514;28;20016;-73
2024/01/07 04:27:38;;;;;;;27.42;17.00;;;2.60;99.90;;;;;;5106025;28;20485;-72
2024/01/07 04:30:06;;;;;;;30.50;16.90;;;2.60;99.90;;;;;;5105444;28;20032;-73
2024/01/07 04:32:31;;;;;;;31.95;18.73;;;2.60;99.90;;;;;;5104980;28;20428;-73
2024/01/07 04:34:57;;;;;;;26.25;16.98;;;2.60;99.90;;;;;;5105480;28;20035;-73
2024/01/07 04:37:26;;;;;;;29.52;17.83;;;2.60;99.90;;;;;;5105908;28;20600;-73
2024/01/07 04:39:51;;;;;;;32.72;17.77;;;2.60;99.90;;;;;;5104987;28;20035;-73
2024/01/07 04:42:18;;;;;;;27.73;17.17;;;2.60;99.90;;;;;;5106059;28;20091;-73
2024/01/07 04:44:43;;;;;;;30.48;18.35;;;2.60;99.90;;;;;;5105476;28;20053;-73
2024/01/07 04:47:34;;;;;;;24.70;16.73;;;2.60;99.90;;;;;;5106187;28;20388;-73
2024/01/07 04:49:59;;;;;;;27.92;17.48;;;2.60;99.90;;;;;;5093000;28;20538;-73
2024/01/07 04:52:25;;;;;;;29.95;18.63;;;2.60;99.90;;;;;;5105695;28;20441;-72
2024/01/07 04:54:52;;;;;;;29.30;17.67;;;2.60;99.90;;;;;;5091086;28;20389;-72
2024/01/07 04:57:18;;;;;;;30.83;18.45;;;2.60;99.90;;;;;;5105819;28;20107;-73
2024/01/07 04:59:44;;;;;;;27.88;17.83;;;2.60;99.90;;;;;;5105003;28;20369;-73
2024/01/07 05:02:10;;;;;;;27.55;16.67;;;2.60;99.90;;;;;;5106290;28;20020;-72
2024/01/07 05:04:36;;;;;;;28.05;17.90;;;2.60;99.90;;;;;;5087142;28;20353;-72
2024/01/07 05:07:02;;;;;;;26.20;16.52;;;2.60;99.90;;;;;;5105333;28;20400;-73
2024/01/07 05:09:28;;;;;;;30.50;18.90;;;2.50;99.90;;;;;;5087043;28;20059;-73
2024/01/07 05:11:53;;;;;;;32.42;18.05;;;2.60;99.90;;;;;;5087050;28;20034;-73
2024/01/07 05:14:19;;;;;;;30.40;18.70;;;2.60;99.90;;;;;;5086604;28;20031;-73
2024/01/07 05:16:45;;;;;;;29.45;18.23;;;2.50;99.90;;;;;;5104908;28;20046;-72
2024/01/07 05:19:10;;;;;;;25.30;16.75;;;2.50;99.90;;;;;;5086849;28;20027;-73
2024/01/07 05:21:36;;;;;;;26.90;17.40;;;2.50;99.90;;;;;;5087152;28;20024;-73
2024/01/07 05:24:01;;;;;;;29.25;18.73;;;2.50;99.90;;;;;;5105707;28;20043;-73
2024/01/07 05:26:27;;;;;;;24.48;16.50;;;2.50;99.90;;;;;;5086823;28;20055;-73
2024/01/07 05:28:52;;;;;;;26.42;17.75;;;2.50;99.90;;;;;;5105325;28;20485;-71
2024/01/07 05:31:19;;;;;;;25.60;16.65;;;2.50;99.90;;;;;;5104788;28;20077;-71
2024/01/07 05:33:45;;;;;;;29.67;17.90;;;2.50;99.90;;;;;;5105274;28;20032;-72
2024/01/07 05:36:14;;;;;;;26.85;15.77;;;2.50;99.90;;;;;;5104939;28;20511;-71
2024/01/07 05:38:42;;;;;;;23.05;15.55;;;2.50;99.90;;;;;;5086899;28;20112;-71
2024/01/07 05:41:07;;;;;;;22.23;14.82;;;2.50;99.90;;;;;;5104898;28;20501;-71
2024/01/07 05:43:33;;;;;;;26.67;17.55;;;2.50;99.90;;;;;;5105224;28;20158;-71
2024/01/07 05:45:58;;;;;;;26.90;17.17;;;2.50;99.90;;;;;;5104774;28;20026;-71
2024/01/07 05:48:24;;;;;;;25.73;17.05;;;2.50;99.90;;;;;;5105329;28;20043;-71
2024/01/07 05:50:50;;;;;;;23.00;15.18;;;2.40;99.90;;;;;;5104397;28;20484;-71
2024/01/07 05:53:17;;;;;;;20.75;14.15;;;2.40;99.90;;;;;;5105508;28;20034;-72
2024/01/07 05:55:43;;;;;;;19.08;13.73;;;2.40;99.90;;;;;;5104917;28;20027;-71
2024/01/07 05:58:08;;;;;;;21.95;14.70;;;2.40;99.90;;;;;;5105119;28;20084;-71
2024/01/07 06:00:34;;;;;;;25.08;15.63;;;2.40;99.90;;;;;;5086299;28;20020;-71
2024/01/07 06:03:00;;;;;;;22.90;15.32;;;2.40;99.90;;;;;;5107793;28;20343;-71
2024/01/07 06:05:26;;;;;;;20.65;14.20;;;2.40;99.90;;;;;;5089625;28;20024;-71
2024/01/07 06:07:51;;;;;;;21.27;15.05;;;2.40;99.90;;;;;;5108364;28;20400;-71
2024/01/07 06:10:17;;;;;;;26.30;15.70;;;2.40;99.90;;;;;;5107912;28;20102;-71
2024/01/07 06:12:43;;;;;;;24.60;15.27;;;2.40;99.90;;;;;;5108832;28;20020;-72
2024/01/07 06:15:09;;;;;;;22.90;15.18;;;2.40;99.90;;;;;;5108328;28;20042;-71
2024/01/07 06:17:34;;;;;;;28.98;16.73;;;2.40;99.90;;;;;;5090445;28;20418;-71
2024/01/07 06:20:00;;;;;;;22.02;15.45;;;2.40;99.90;;;;;;5107541;28;20050;-71
2024/01/07 06:22:26;;;;;;;22.08;14.63;;;2.40;99.90;;;;;;5108246;28;20026;-71
2024/01/07 06:24:51;;;;;;;21.50;14.43;;;2.40;99.90;;;;;;5107818;28;20493;-71
2024/01/07 06:27:17;;;;;;;24.73;15.10;;;2.30;99.90;;;;;;5108207;28;20490;-71
2024/01/07 06:29:43;;;;;;;21.23;14.25;;;2.30;99.90;;;;;;5107761;28;20032;-72
2024/01/07 06:32:09;;;;;;;20.40;12.63;;;2.30;99.90;;;;;;5089841;28;20040;-72
2024/01/07 06:34:35;;;;;;;20.05;13.80;;;2.30;99.90;;;;;;5107573;28;20027;-71
2024/01/07 06:37:01;;;;;;;20.65;13.40;;;2.30;99.90;;;;;;5107801;28;20048;-71
2024/01/07 06:39:27;;;;;;;20.65;12.55;;;2.30;99.90;;;;;;5107563;28;20020;-71
2024/01/07 06:41:53;;;;;;;19.75;13.23;;;2.30;99.90;;;;;;5108125;28;20088;-71
2024/01/07 06:44:19;;;;;;;20.60;13.57;;;2.30;99.90;;;;;;5108211;28;20032;-72
2024/01/07 06:46:45;;;;;;;21.75;14.18;;;2.20;99.90;;;;;;5107809;28;20031;-71
2024/01/07 06:49:10;;;;;;;20.83;13.00;;;2.20;99.90;;;;;;5108126;28;20027;-71
2024/01/07 06:51:38;;;;;;;21.55;14.38;;;2.20;99.90;;;;;;5107181;28;20038;-71
2024/01/07 06:54:03;;;;;;;22.75;14.95;;;2.20;99.90;;;;;;5108080;28;20052;-71
2024/01/07 06:56:29;;;;;;;21.00;14.55;;;2.20;99.90;;;;;;5107339;28;20028;-71
2024/01/07 06:58:55;;;;;;;23.00;14.65;;;2.20;99.90;;;;;;5107772;28;20070;-71
2024/01/07 07:01:23;;;;;;;20.20;13.90;;;2.20;99.90;;;;;;5107643;28;20028;-72
2024/01/07 07:03:50;;;;;;;18.52;12.75;;;2.20;99.90;;;;;;5107370;28;20058;-72
2024/01/07 07:06:16;;;;;;;20.70;13.95;;;2.20;99.90;;;;;;5088437;28;20027;-71
2024/01/07 07:08:42;;;;;;;20.90;13.60;;;2.20;99.90;;;;;;5107319;28;20114;-71
2024/01/07 07:11:08;;;;;;;25.85;13.90;;;2.20;99.90;;;;;;5106749;28;20618;-71
2024/01/07 07:13:33;;;;;;;21.88;14.50;;;2.20;99.90;;;;;;5107316;28;20031;-72
2024/01/07 07:16:00;;;;;;;22.55;14.00;;;2.20;99.90;;;;;;5106937;28;20020;-72
2024/01/07 07:18:25;;;;;;;19.63;13.43;;;2.20;99.90;;;;;;5089390;28;20396;-72
2024/01/07 07:20:51;;;;;;;19.88;13.27;;;2.20;99.90;;;;;;5106325;28;20027;-72
2024/01/07 07:23:17;;;;;;;23.75;13.52;;;2.20;99.90;;;;;;5107614;28;20528;-71
2024/01/07 07:25:43;;;;;;;22.35;13.80;;;2.20;99.90;;;;;;5106388;28;20054;-71
2024/01/07 07:28:09;;;;;;;18.55;13.25;;;2.10;99.90;;;;;;5107323;28;20860;-72
2024/01/07 07:30:35;;;;;;;21.77;13.57;;;2.10;99.90;;;;;;5105360;28;20324;-71
2024/01/07 07:33:01;;;;;;;21.48;13.40;;;2.20;99.90;;;;;;5106849;28;20019;-71
2024/01/07 07:35:28;;;;;;;20.85;13.20;;;2.20;99.90;;;;;;5106682;28;20039;-72
2024/01/07 07:37:54;;;;;;;19.80;12.85;;;2.20;99.90;;;;;;5105283;28;20050;-71
2024/01/07 07:40:19;;;;;;;17.33;12.35;;;2.20;99.90;;;;;;5106652;28;20397;-72
2024/01/07 07:42:45;;;;;;;20.08;12.82;;;2.20;99.90;;;;;;5106662;28;20509;-72
2024/01/07 07:45:11;;;;;;;17.95;12.27;;;2.10;99.90;;;;;;5106207;28;20426;-72
2024/01/07 07:47:37;;;;;;;18.83;12.25;;;2.20;99.90;;;;;;5107050;28;20019;-72
2024/01/07 07:50:03;;;;;;;16.63;11.80;;;2.20;99.90;;;;;;5086245;28;20401;-72
2024/01/07 07:52:30;;;;;;;16.20;12.13;;;2.20;99.90;;;;;;5106894;28;20506;-72
2024/01/07 07:54:55;;;;;;;20.42;13.45;;;2.20;99.90;;;;;;5106146;28;20031;-72
2024/01/07 07:57:21;;;;;;;19.58;12.85;;;2.20;99.90;;;;;;5105664;28;20503;-72
2024/01/07 07:59:49;;;;;;;18.10;12.68;;;2.20;99.90;;;;;;5105246;28;20076;-72
2024/01/07 08:02:15;;;;;;;19.55;13.57;;;2.20;99.90;;;;;;5106701;28;20027;-72
2024/01/07 08:04:41;;;;;;;17.90;12.82;;;2.20;99.90;;;;;;5104224;27;20068;-72
2024/01/07 08:07:08;;;;;;;17.45;12.18;;;2.10;99.90;;;;;;5096978;27;20031;-72
2024/01/07 08:09:36;;;;;;;15.38;11.45;;;2.10;99.90;;;;;;5092710;27;20035;-72
2024/01/07 08:12:03;;;;;;;18.05;12.35;;;2.10;99.90;;;;;;5098775;28;20463;-72
2024/01/07 08:14:28;;;;;;;17.85;11.38;;;2.10;99.90;;;;;;5082787;27;20023;-73
2024/01/07 08:16:54;;;;;;;17.98;11.20;;;2.10;99.90;;;;;;5121967;27;20404;-73
2024/01/07 08:19:20;;;;;;;18.42;11.73;;;2.10;99.90;;;;;;5125306;27;20023;-73
2024/01/07 08:21:46;;;;;;;16.40;11.57;;;2.10;99.90;;;;;;5107268;27;20019;-73
2024/01/07 08:24:11;;;;;;;14.63;10.23;;;2.10;99.90;;;;;;5086638;27;20457;-73
2024/01/07 08:26:37;;;;;;;15.40;11.50;;;2.00;99.90;;;;;;5118911;27;20027;-73
2024/01/07 08:29:03;;;;;;;14.50;10.77;;;2.00;99.90;;;;;;5119596;27;20069;-73
2024/01/07 08:31:29;;;;;;;14.82;11.43;;;2.10;99.90;;;;;;5115774;27;20067;-72
2024/01/07 08:33:55;;;;;;;14.38;10.70;;;2.00;99.90;;;;;;5114829;27;20395;-72
2024/01/07 08:36:21;;;;;;;14.00;9.88;;;2.00;99.90;;;;;;5110866;27;20019;-72
2024/01/07 08:38:47;;;;;;;14.63;10.52;;;2.00;99.90;;;;;;5110869;27;20043;-72
2024/01/07 08:41:18;;;;;;;15.82;10.85;;;2.00;99.90;;;;;;5091805;28;20102;-72
2024/01/07 08:43:44;;;;;;;;;;;2.00;99.90;;;;;;5097966;28;20034;-73
2024/01/07 08:46:11;;;;;;;15.38;9.10;;;2.00;99.90;;;;;;5114505;27;19908;-73
2024/01/07 08:48:37;;;;;;;14.75;9.93;;;2.00;99.90;;;;;;5119367;28;20106;-73
2024/01/07 08:51:03;;;;;;;14.52;9.98;;;1.90;99.90;;;;;;5118273;28;20114;-73
2024/01/07 08:53:28;;;;;;;13.70;9.45;;;1.90;99.90;;;;;;5122326;28;20484;-74
2024/01/07 08:55:54;;;;;;;14.52;10.20;;;1.90;99.90;;;;;;5122996;28;20023;-74
2024/01/07 08:58:20;;;;;;;13.98;9.85;;;1.90;99.90;;;;;;5125464;28;20042;-73
2024/01/07 09:00:46;;;;;;;16.63;9.68;;;1.90;99.90;;;;;;5112237;28;20504;-73
2024/01/07 09:03:11;;;;;;;16.13;11.18;;;1.90;99.90;;;;;;5111584;28;20019;-73
2024/01/07 09:05:37;;;;;;;14.50;10.50;;;1.90;99.90;;;;;;5118670;28;20065;-73
2024/01/07 09:08:03;;;;;;;15.95;10.73;;;1.90;99.90;;;;;;5122494;28;20048;-72
2024/01/07 09:10:29;;;;;;;13.20;9.90;;;1.80;99.90;;;;;;5105733;28;20020;-73
2024/01/07 09:12:55;;;;;;;13.63;9.93;;;1.90;99.90;;;;;;5110500;28;20049;-73
2024/01/07 09:15:21;;;;;;;13.85;9.52;;;1.80;99.90;;;;;;5089675;28;20034;-73
2024/01/07 09:17:47;;;;;;;15.55;10.10;;;1.80;99.90;;;;;;5098853;28;20043;-72
2024/01/07 09:20:13;;;;;;;15.57;10.88;;;1.80;99.90;;;;;;5117985;28;20075;-72
2024/01/07 09:22:39;;;;;;;14.65;10.18;;;1.80;99.90;;;;;;5121028;28;20020;-72
2024/01/07 09:25:06;;;;;;;13.98;10.05;;;1.80;99.90;;;;;;5105213;28;20020;-73
2024/01/07 09:27:33;;;;;;;14.50;10.18;;;1.80;99.90;;;;;;5114692;28;20084;-72
2024/01/07 09:29:59;;;;;;;15.27;9.18;;;1.80;99.90;;;;;;5112702;28;20030;-73
2024/01/07 09:32:25;;;;;;;13.98;8.90;;;1.90;99.90;;;;;;5107478;28;20420;-72
2024/01/07 09:34:50;;;;;;;17.60;9.32;;;1.90;99.90;;;;;;5106884;28;20020;-73
2024/01/07 09:37:17;;;;;;;14.15;9.30;;;1.90;99.90;;;;;;5088006;28;20051;-73
2024/01/07 09:39:44;;;;;;;12.98;8.50;;;1.90;99.90;;;;;;5109672;28;20119;-73
2024/01/07 09:42:14;;;;;;;12.10;8.18;;;1.90;99.90;;;;;;5108299;28;20076;-73
2024/01/07 09:44:40;;;;;;;12.13;8.27;;;1.80;99.90;;;;;;5095682;28;20020;-72
2024/01/07 09:47:11;;;;;;;14.38;9.13;;;1.90;99.90;;;;;;5108657;28;20280;-72
2024/01/07 09:49:37;;;;;;;14.05;8.88;;;1.90;99.90;;;;;;5091096;28;20020;-72
2024/01/07 09:52:04;;;;;;;15.45;9.52;;;1.90;99.90;;;;;;5108177;28;20161;-72
2024/01/07 09:54:31;;;;;;;16.58;8.95;;;1.90;99.90;;;;;;5090707;28;20027;-73
2024/01/07 09:57:01;;;;;;;14.25;9.10;;;1.90;99.90;;;;;;5108462;28;20782;-73
2024/01/07 09:59:30;;;;;;;15.77;9.20;;;2.00;99.90;;;;;;5109270;28;20473;-73
2024/01/07 10:01:57;;;;;;;12.27;8.20;;;2.00;99.90;;;;;;5103839;27;20031;-72
2024/01/07 10:04:30;;;;;;;11.98;7.93;;;2.00;99.90;;;;;;5111352;27;20106;-72
2024/01/07 10:06:56;;;;;;;14.75;9.25;;;1.90;99.90;;;;;;5108106;28;20164;-72
2024/01/07 10:09:29;;;;;;;12.27;8.38;;;2.00;99.90;;;;;;5109048;28;20142;-73
2024/01/07 10:11:55;;;;;;;12.27;8.35;;;2.00;99.90;;;;;;5093824;28;20051;-72
2024/01/07 10:14:25;;;;;;;13.20;7.82;;;2.00;99.90;;;;;;5109071;28;20066;-73
2024/01/07 10:16:54;;;;;;;12.13;8.07;;;1.90;99.90;;;;;;5107874;28;20327;-72
2024/01/07 10:19:21;;;;;;;11.90;7.32;;;1.90;99.90;;;;;;5108947;28;20046;-73
2024/01/07 10:21:58;;;;;;;10.55;7.38;;;1.90;99.90;;;;;;5114483;27;20388;-73
2024/01/07 10:24:23;;;;;;;12.27;6.65;;;1.90;99.90;;;;;;5098063;27;20028;-73
2024/01/07 10:26:49;;;;;;;11.07;6.70;;;1.90;99.90;;;;;;5109343;27;20170;-72
2024/01/07 10:29:15;;;;;;;11.00;6.93;;;2.00;99.90;;;;;;5108395;28;20408;-72
2024/01/07 10:31:42;;;;;;;13.02;7.03;;;2.00;99.90;;;;;;5107080;28;20034;-73
2024/01/07 10:34:09;;;;;;;8.95;6.20;;;2.00;99.90;;;;;;5108420;28;20019;-72
2024/01/07 10:36:35;;;;;;;9.85;6.30;;;2.00;99.90;;;;;;5102664;28;20054;-73
2024/01/07 10:39:02;;;;;;;9.52;6.30;;;2.00;99.90;;;;;;5108334;28;20046;-72
2024/01/07 10:41:29;;;;;;;9.68;5.88;;;2.10;99.90;;;;;;5106077;28;20027;-72
2024/01/07 10:43:55;;;;;;;10.35;5.82;;;2.10;99.90;;;;;;5109353;28;20023;-72
2024/01/07 10:46:21;;;;;;;11.55;6.30;;;2.20;99.90;;;;;;5109035;27;20472;-73
2024/01/07 10:49:00;;;;;;;10.05;6.18;;;2.20;99.90;;;;;;5090332;28;20027;-72
2024/01/07 10:51:28;;;;;;;8.45;5.50;;;2.30;99.90;;;;;;5105841;27;20027;-72
2024/01/07 10:53:55;;;;;;;7.90;5.55;;;2.30;99.90;;;;;;5093154;27;20193;-72
2024/01/07 10:56:25;;;;;;;11.07;5.70;;;2.30;99.90;;;;;;5100352;28;20027;-73
2024/01/07 10:58:54;;;;;;;9.90;5.78;;;2.30;99.90;;;;;;5083978;27;20030;-73
2024/01/07 11:01:21;;;;;;;9.00;5.20;;;2.40;99.90;;;;;;5105308;28;20031;-73
2024/01/07 11:04:22;;;;;;;8.82;5.20;;;2.40;99.90;;;;;;5110580;27;20034;-73
2024/01/07 11:06:59;;;;;;;8.02;4.95;;;2.40;99.90;;;;;;5102870;27;20020;-73
2024/01/07 11:09:29;;;;;;;8.77;5.28;;;2.40;99.90;;;;;;5107782;28;20055;-72
2024/01/07 11:11:56;;;;;;;8.60;5.33;;;2.40;99.90;;;;;;5092900;28;20020;-73
2024/01/07 11:14:45;;;;;;;7.50;5.30;;;2.40;99.90;;;;;;5085331;28;20705;-73
2024/01/07 11:17:13;;;;;;;10.70;5.68;;;2.40;99.90;;;;;;5087994;28;20042;-73
2024/01/07 11:19:54;;;;;;;7.80;5.53;;;2.40;99.90;;;;;;5105541;27;20061;-73
2024/01/07 11:22:28;;;;;;;8.65;5.82;;;2.40;99.90;;;;;;5090900;28;20038;-73
2024/01/07 11:24:57;;;;;;;8.15;5.20;;;2.40;99.90;;;;;;5110696;27;20054;-73
2024/01/07 11:27:25;;;;;;;8.20;5.15;;;2.30;99.90;;;;;;5111029;27;20011;-73
2024/01/07 11:29:58;;;;;;;9.20;5.22;;;2.30;99.90;;;;;;5110879;27;20107;-74
2024/01/07 11:32:28;;;;;;;6.90;4.53;;;2.40;99.90;;;;;;5090166;28;20480;-72
2024/01/07 11:34:56;;;;;;;5.95;3.80;;;2.60;99.90;;;;;;5119049;27;20030;-74
2024/01/07 11:37:22;;;;;;;5.35;3.40;;;2.90;99.90;;;;;;5120080;27;20504;-73
2024/01/07 11:39:50;;;;;;;5.38;3.65;;;3.10;99.90;;;;;;5122316;27;20031;-73
2024/01/07 11:42:17;;;;;;;6.40;4.03;;;3.20;99.90;;;;;;5104957;27;20156;-73
2024/01/07 11:44:50;;;;;;;6.45;3.90;;;3.30;99.90;;;;;;5125336;27;20016;-73
2024/01/07 11:47:20;;;;;;;5.50;3.40;;;3.40;99.90;;;;;;5113161;27;20291;-74
2024/01/07 11:49:46;;;;;;;7.27;3.37;;;3.50;99.90;;;;;;5106724;28;20030;-72
2024/01/07 11:52:13;;;;;;;7.18;3.67;;;3.60;99.90;;;;;;5091268;27;20791;-72
2024/01/07 11:54:39;;;;;;;5.53;3.13;;;3.60;99.90;;;;;;5112182;27;20012;-72
2024/01/07 11:57:09;;;;;;;4.63;2.92;;;3.70;99.90;;;;;;5112939;27;20032;-74
2024/01/07 11:59:36;;;;;;;6.20;2.80;;;3.60;99.90;;;;;;5115789;27;20544;-72
2024/01/07 12:02:04;;;;;;;4.65;2.70;;;3.50;99.90;;;;;;5115929;27;20380;-73
2024/01/07 12:04:33;;;;;;;4.75;2.67;;;3.50;99.90;;;;;;5121127;27;21944;-73
2024/01/07 12:07:00;;;;;;;5.28;2.15;;;3.50;99.90;;;;;;5087968;28;20074;-73
2024/01/07 12:09:26;;;;;;;4.38;2.35;;;3.60;99.90;;;;;;5121631;27;20027;-73
2024/01/07 12:11:52;;;;;;;4.70;2.53;;;3.60;99.90;;;;;;5119815;27;20380;-73
2024/01/07 12:14:19;;;;;;;3.97;2.13;;;3.70;99.90;;;;;;5094220;27;20051;-73
2024/01/07 12:16:45;;;;;;;4.32;2.17;;;3.80;99.90;;;;;;5118727;27;20019;-73
2024/01/07 12:19:11;;;;;;;3.78;2.30;;;3.90;99.90;;;;;;5115721;27;20358;-73
2024/01/07 12:21:38;;;;;;;4.63;2.17;;;4.00;99.90;;;;;;5121388;27;20023;-73
2024/01/07 12:24:04;;;;;;;4.03;2.22;;;4.10;99.90;;;;;;5119747;27;20028;-73
2024/01/07 12:26:32;;;;;;;4.40;2.10;;;4.00;99.90;;;;;;5123807;27;20050;-71
2024/01/07 12:29:03;;;;;;;6.85;2.20;;;4.00;99.90;;;;;;5103855;28;20032;-73
2024/01/07 12:31:30;;;;;;;3.83;2.15;;;3.90;99.90;;;;;;5104196;27;20023;-74
2024/01/07 12:33:56;;;;;;;3.22;1.92;;;4.00;99.90;;;;;;5114756;27;20046;-74
2024/01/07 12:36:22;;;;;;;4.70;2.00;;;3.90;99.90;;;;;;5112725;27;20020;-74
2024/01/07 12:38:49;;;;;;;5.28;2.45;;;3.90;99.90;;;;;;5112029;27;20096;-74